Time;durP1;ratioP1;P1;durP2;ratioP2;P2;SDS_P1;SDS_P2;PMS_P1;PMS_P2;Temp;Humidity;BMP_temperature;BMP_pressure;BME280_temperature;BME280_humidity;BME280_pressure;Samples;Min_cycle;Max_cycle;Signal;HPM_P1;HPM_P2
2021/05/22 00:01:07;;;;;;;5.25;0.30;;;11.70;74.00;;;;;;4824539;29;20053;-72
2021/05/22 00:03:34;;;;;;;2.72;0.65;;;11.70;74.00;;;;;;4858483;29;20046;-72
2021/05/22 00:06:01;;;;;;;2.35;0.47;;;11.70;74.00;;;;;;4843631;29;20490;-72
2021/05/22 00:08:28;;;;;;;1.45;0.30;;;11.70;74.00;;;;;;4859955;29;20056;-72
2021/05/22 00:10:55;;;;;;;1.95;0.40;;;11.70;74.00;;;;;;4861177;29;20105;-72
2021/05/22 00:13:22;;;;;;;1.75;0.40;;;11.70;74.00;;;;;;4845606;29;20506;-72
2021/05/22 00:15:49;;;;;;;1.60;0.25;;;11.70;74.00;;;;;;4830111;29;20061;-72
2021/05/22 00:18:16;;;;;;;2.75;0.30;;;11.70;74.10;;;;;;4839032;29;20050;-72
2021/05/22 00:20:43;;;;;;;2.03;0.35;;;11.70;74.10;;;;;;4821698;29;20121;-73
2021/05/22 00:23:11;;;;;;;1.67;0.30;;;11.70;74.20;;;;;;4854883;29;20050;-72
2021/05/22 00:25:38;;;;;;;1.00;0.20;;;11.70;74.20;;;;;;4868592;29;20056;-71
2021/05/22 00:28:05;;;;;;;1.73;0.32;;;11.70;74.20;;;;;;4852692;29;20049;-71
2021/05/22 00:30:32;;;;;;;1.75;0.20;;;11.70;74.20;;;;;;4863496;29;20664;-72
2021/05/22 00:32:59;;;;;;;1.73;0.20;;;11.80;74.20;;;;;;4868022;29;20049;-71
2021/05/22 00:35:26;;;;;;;2.17;0.50;;;11.80;74.00;;;;;;4848654;29;20065;-71
2021/05/22 00:37:53;;;;;;;1.35;0.35;;;11.80;73.90;;;;;;4864314;29;20558;-71
2021/05/22 00:40:21;;;;;;;5.20;0.47;;;11.80;73.90;;;;;;4821545;29;20041;-71
2021/05/22 00:42:47;;;;;;;1.67;0.50;;;11.80;73.80;;;;;;4844479;29;20124;-72
2021/05/22 00:45:19;;;;;;;0.80;0.20;;;11.80;73.90;;;;;;4830612;29;20050;-71
2021/05/22 00:47:51;;;;;;;1.60;0.35;;;11.90;74.00;;;;;;4853429;29;20553;-72
2021/05/22 00:50:21;;;;;;;2.35;0.52;;;11.90;73.70;;;;;;4867780;29;20048;-71
2021/05/22 00:52:49;;;;;;;3.20;0.60;;;11.90;73.60;;;;;;4860828;29;20049;-71
2021/05/22 00:55:17;;;;;;;1.83;0.30;;;11.90;73.40;;;;;;4840767;29;20383;-71
2021/05/22 00:57:44;;;;;;;2.50;0.30;;;11.90;73.30;;;;;;4824486;29;20056;-72
2021/05/22 01:00:17;;;;;;;2.45;0.30;;;11.90;73.10;;;;;;4843766;29;20391;-71
2021/05/22 01:02:47;;;;;;;1.85;0.95;;;11.90;73.10;;;;;;4860823;29;20041;-71
2021/05/22 01:05:15;;;;;;;1.42;0.30;;;11.90;73.10;;;;;;4823624;29;20861;-71
2021/05/22 01:07:44;;;;;;;3.25;0.32;;;11.90;73.10;;;;;;4859798;29;20085;-71
2021/05/22 01:10:12;;;;;;;3.17;0.40;;;11.90;73.10;;;;;;4843778;29;20057;-71
2021/05/22 01:12:44;;;;;;;2.63;0.52;;;11.90;72.90;;;;;;4857374;29;20098;-72
2021/05/22 01:15:13;;;;;;;3.00;0.30;;;11.90;72.90;;;;;;4834554;29;20038;-71
2021/05/22 01:17:52;;;;;;;1.83;0.30;;;11.90;72.90;;;;;;4827925;29;20517;-72
2021/05/22 01:20:44;;;;;;;2.72;0.32;;;11.90;72.90;;;;;;4839874;29;20047;-71
2021/05/22 01:23:21;;;;;;;1.55;0.32;;;11.90;72.80;;;;;;4840515;29;20081;-72
2021/05/22 01:25:49;;;;;;;3.75;0.30;;;11.90;72.80;;;;;;4839062;29;20510;-71
2021/05/22 01:28:17;;;;;;;2.97;0.40;;;11.90;72.70;;;;;;4847796;29;20051;-71
2021/05/22 01:30:45;;;;;;;0.70;0.20;;;11.90;72.70;;;;;;4849550;29;20057;-71
2021/05/22 01:33:12;;;;;;;1.52;0.25;;;11.90;72.70;;;;;;4860695;29;20071;-71
2021/05/22 01:35:41;;;;;;;2.05;0.47;;;11.90;72.70;;;;;;4849691;29;20065;-72
2021/05/22 01:38:08;;;;;;;1.92;0.40;;;11.90;72.70;;;;;;4860300;29;20049;-71
2021/05/22 01:40:36;;;;;;;3.55;0.57;;;11.90;72.60;;;;;;4853676;29;20042;-71
2021/05/22 01:43:05;;;;;;;3.55;0.35;;;11.90;72.40;;;;;;4860771;29;20084;-72
2021/05/22 01:45:36;;;;;;;3.00;0.40;;;11.80;72.30;;;;;;4847316;29;20459;-71
2021/05/22 01:48:06;;;;;;;1.80;0.30;;;11.80;72.30;;;;;;4847768;29;20061;-72
2021/05/22 01:50:34;;;;;;;1.15;0.22;;;11.80;72.50;;;;;;4840156;29;20086;-71
2021/05/22 01:53:04;;;;;;;1.60;0.20;;;11.80;72.60;;;;;;4860347;29;20053;-72
2021/05/22 01:55:33;;;;;;;2.58;0.28;;;11.80;72.60;;;;;;4845292;29;20502;-72
2021/05/22 01:58:00;;;;;;;3.03;0.38;;;11.80;72.50;;;;;;4860563;29;20078;-71
2021/05/22 02:00:27;;;;;;;3.38;0.43;;;11.80;72.50;;;;;;4859602;29;20037;-72
2021/05/22 02:03:13;;;;;;;0.52;0.20;;;11.80;72.40;;;;;;4828447;29;20129;-72
2021/05/22 02:05:41;;;;;;;4.35;0.52;;;11.80;73.10;;;;;;4843037;29;20049;-71
2021/05/22 02:08:13;;;;;;;1.15;0.28;;;11.80;72.50;;;;;;4843883;29;20049;-71
2021/05/22 02:10:41;;;;;;;1.83;0.55;;;11.80;72.50;;;;;;4859270;29;20045;-71
2021/05/22 02:13:08;;;;;;;1.33;0.30;;;11.80;72.40;;;;;;4834479;29;20122;-71
2021/05/22 02:15:38;;;;;;;1.90;0.30;;;11.80;72.40;;;;;;4842524;29;20050;-72
2021/05/22 02:18:07;;;;;;;1.20;0.20;;;11.80;72.50;;;;;;4849352;29;20038;-72
2021/05/22 02:20:34;;;;;;;0.55;0.13;;;11.80;72.60;;;;;;4829880;29;20053;-72
2021/05/22 02:23:03;;;;;;;3.47;0.40;;;11.80;72.70;;;;;;4850363;29;20079;-71
2021/05/22 02:25:30;;;;;;;1.45;0.30;;;11.80;72.70;;;;;;4839809;29;20081;-73
2021/05/22 02:27:59;;;;;;;0.50;0.10;;;11.80;72.60;;;;;;4850563;29;20050;-72
2021/05/22 02:30:27;;;;;;;1.60;0.30;;;11.80;72.70;;;;;;4848274;29;20045;-71
2021/05/22 02:32:55;;;;;;;2.15;0.30;;;11.80;72.80;;;;;;4850658;29;20053;-72
2021/05/22 02:35:24;;;;;;;1.23;0.28;;;11.80;72.60;;;;;;4846142;29;20453;-71
2021/05/22 02:37:53;;;;;;;1.48;0.40;;;11.70;72.50;;;;;;4856184;29;20454;-71
2021/05/22 02:40:24;;;;;;;2.47;0.30;;;11.70;72.60;;;;;;4851090;29;20124;-71
2021/05/22 02:42:58;;;;;;;3.97;0.60;;;11.70;72.70;;;;;;4850224;29;20093;-72
2021/05/22 02:45:28;;;;;;;1.20;0.30;;;11.70;72.80;;;;;;4859888;29;20049;-72
2021/05/22 02:47:57;;;;;;;3.10;0.20;;;11.70;72.90;;;;;;4858585;29;20049;-71
2021/05/22 02:50:25;;;;;;;1.73;0.40;;;11.60;72.90;;;;;;4849907;29;20049;-71
2021/05/22 02:52:54;;;;;;;2.45;0.52;;;11.60;73.00;;;;;;4858269;29;20467;-71
2021/05/22 02:55:21;;;;;;;1.10;0.10;;;11.60;73.10;;;;;;4842300;29;20106;-71
2021/05/22 02:57:49;;;;;;;0.68;0.10;;;11.60;73.20;;;;;;4859279;29;20052;-71
2021/05/22 03:00:17;;;;;;;3.45;0.40;;;11.70;73.30;;;;;;4856451;29;20355;-71
2021/05/22 03:02:45;;;;;;;1.67;0.80;;;11.70;73.30;;;;;;4859652;29;20049;-71
2021/05/22 03:05:13;;;;;;;0.75;0.20;;;11.70;73.30;;;;;;4858078;29;20560;-71
2021/05/22 03:07:41;;;;;;;1.23;0.25;;;11.70;73.20;;;;;;4859785;29;20073;-71
2021/05/22 03:10:08;;;;;;;3.05;0.95;;;11.70;73.20;;;;;;4859443;29;20082;-71
2021/05/22 03:12:36;;;;;;;2.38;0.15;;;11.70;73.20;;;;;;4859593;29;20113;-71
2021/05/22 03:15:05;;;;;;;3.05;0.50;;;11.70;73.40;;;;;;4859329;29;20045;-71
2021/05/22 03:17:33;;;;;;;3.78;0.20;;;11.60;73.50;;;;;;4832529;29;20046;-71
2021/05/22 03:20:00;;;;;;;2.63;0.20;;;11.60;73.50;;;;;;4851003;29;20490;-71
2021/05/22 03:22:27;;;;;;;1.38;0.20;;;11.60;73.70;;;;;;4834442;29;20041;-71
2021/05/22 03:24:55;;;;;;;2.05;0.13;;;11.60;73.80;;;;;;4849678;29;20124;-71
2021/05/22 03:27:22;;;;;;;1.35;0.25;;;11.50;73.80;;;;;;4828432;29;20729;-71
2021/05/22 03:29:49;;;;;;;2.28;0.32;;;11.60;73.90;;;;;;4859422;29;20182;-71
2021/05/22 03:32:16;;;;;;;1.08;0.20;;;11.60;73.90;;;;;;4849446;29;20057;-71
2021/05/22 03:34:43;;;;;;;3.05;0.22;;;11.60;73.80;;;;;;4855542;29;20050;-71
2021/05/22 03:37:10;;;;;;;2.85;0.38;;;11.60;73.80;;;;;;4859473;29;20037;-71
2021/05/22 03:39:37;;;;;;;4.93;0.35;;;11.60;73.70;;;;;;4841140;29;20049;-73
2021/05/22 03:42:04;;;;;;;1.55;0.22;;;11.70;73.60;;;;;;4850090;29;20098;-73
2021/05/22 03:44:31;;;;;;;2.53;0.30;;;11.70;73.70;;;;;;4850378;29;20049;-72
2021/05/22 03:46:59;;;;;;;0.38;0.10;;;11.70;73.50;;;;;;4832946;29;20053;-72
2021/05/22 03:49:28;;;;;;;0.93;0.15;;;11.70;73.50;;;;;;4827109;29;20524;-72
2021/05/22 03:51:56;;;;;;;2.05;0.20;;;11.70;73.60;;;;;;4839745;29;20196;-72
2021/05/22 03:54:24;;;;;;;0.90;0.10;;;11.70;73.60;;;;;;4848209;29;20060;-72
2021/05/22 03:56:51;;;;;;;1.63;0.20;;;11.70;73.60;;;;;;4849104;29;20049;-72
2021/05/22 03:59:18;;;;;;;1.95;0.25;;;11.70;73.70;;;;;;4859260;29;20052;-72
2021/05/22 04:01:45;;;;;;;1.65;0.25;;;11.80;73.60;;;;;;4857294;29;20053;-72
2021/05/22 04:04:12;;;;;;;0.90;0.10;;;11.80;73.70;;;;;;4850064;29;20061;-72
2021/05/22 04:06:39;;;;;;;0.57;0.20;;;11.80;73.70;;;;;;4844474;29;20505;-72
2021/05/22 04:09:06;;;;;;;1.27;0.17;;;11.80;73.70;;;;;;4858486;29;20121;-72
2021/05/22 04:11:33;;;;;;;3.15;0.30;;;11.80;73.80;;;;;;4833838;29;20189;-72
2021/05/22 04:14:00;;;;;;;0.75;0.22;;;11.80;73.70;;;;;;4852635;29;20102;-72
2021/05/22 04:16:27;;;;;;;1.50;0.20;;;11.80;73.70;;;;;;4826576;29;20058;-72
2021/05/22 04:18:55;;;;;;;1.85;0.30;;;11.80;73.80;;;;;;4831685;29;20057;-72
2021/05/22 04:21:23;;;;;;;0.70;0.20;;;11.80;73.70;;;;;;4858828;29;20045;-72
2021/05/22 04:23:50;;;;;;;2.50;0.40;;;11.80;73.80;;;;;;4844604;29;20952;-71
2021/05/22 04:26:17;;;;;;;1.88;0.30;;;11.80;73.70;;;;;;4839770;29;20053;-71
2021/05/22 04:28:44;;;;;;;2.78;0.30;;;11.80;73.80;;;;;;4858790;29;20409;-72
2021/05/22 04:31:11;;;;;;;2.42;0.35;;;11.80;73.80;;;;;;4854919;29;20110;-71
2021/05/22 04:33:38;;;;;;;1.67;0.20;;;11.80;73.90;;;;;;4845130;29;20045;-71
2021/05/22 04:36:06;;;;;;;1.65;0.20;;;11.70;73.90;;;;;;4835909;29;20565;-71
2021/05/22 04:38:33;;;;;;;3.13;0.20;;;11.70;74.00;;;;;;4858286;29;20053;-71
2021/05/22 04:41:01;;;;;;;0.70;0.20;;;11.70;74.30;;;;;;4859603;29;20045;-71
2021/05/22 04:43:28;;;;;;;1.02;0.30;;;11.70;74.50;;;;;;4861219;29;20041;-71
2021/05/22 04:45:55;;;;;;;1.48;0.28;;;11.60;74.80;;;;;;4861242;29;20054;-71
2021/05/22 04:48:22;;;;;;;4.30;0.30;;;11.60;75.10;;;;;;4856621;29;20049;-71
2021/05/22 04:50:49;;;;;;;5.47;0.77;;;11.50;75.30;;;;;;4861912;29;20049;-71
2021/05/22 04:53:16;;;;;;;3.50;0.30;;;11.50;75.50;;;;;;4855011;29;20410;-71
2021/05/22 04:55:43;;;;;;;3.35;0.55;;;11.50;75.70;;;;;;4834518;29;20058;-72
2021/05/22 04:58:11;;;;;;;4.57;0.52;;;11.40;75.90;;;;;;4861325;29;20832;-73
2021/05/22 05:00:38;;;;;;;0.85;0.20;;;11.30;76.10;;;;;;4861205;29;20038;-73
2021/05/22 05:03:05;;;;;;;1.35;0.30;;;11.30;76.60;;;;;;4860833;29;20049;-73
2021/05/22 05:05:32;;;;;;;1.50;0.30;;;11.20;76.80;;;;;;4834443;29;20058;-73
2021/05/22 05:07:59;;;;;;;1.42;0.28;;;11.10;77.30;;;;;;4858402;29;20120;-73
2021/05/22 05:10:27;;;;;;;2.13;0.35;;;11.00;77.60;;;;;;4836449;29;20114;-73
2021/05/22 05:12:54;;;;;;;1.85;0.20;;;11.00;78.10;;;;;;4861213;29;20430;-72
2021/05/22 05:15:21;;;;;;;1.58;0.30;;;10.90;78.30;;;;;;4860836;29;20120;-72
2021/05/22 05:17:48;;;;;;;1.55;0.32;;;10.90;78.60;;;;;;4852454;29;20037;-72
2021/05/22 05:20:15;;;;;;;1.77;0.30;;;10.90;78.80;;;;;;4829623;29;20350;-73
2021/05/22 05:22:42;;;;;;;4.88;0.50;;;10.80;79.10;;;;;;4850261;29;20049;-72
2021/05/22 05:25:10;;;;;;;3.80;0.60;;;10.80;79.50;;;;;;4852827;29;20057;-72
2021/05/22 05:27:37;;;;;;;2.80;0.38;;;10.80;79.90;;;;;;4861189;29;20076;-72
2021/05/22 05:30:05;;;;;;;2.30;0.30;;;10.70;80.50;;;;;;4835182;29;20561;-72
2021/05/22 05:32:32;;;;;;;1.23;0.30;;;10.70;81.10;;;;;;4859506;29;20054;-72
2021/05/22 05:34:59;;;;;;;4.50;0.57;;;10.60;81.60;;;;;;4849944;29;20074;-72
2021/05/22 05:37:26;;;;;;;3.50;0.45;;;10.70;82.10;;;;;;4828698;29;20562;-72
2021/05/22 05:39:53;;;;;;;1.33;0.20;;;10.60;82.40;;;;;;4852824;29;20102;-72
2021/05/22 05:42:20;;;;;;;1.42;0.45;;;10.60;82.90;;;;;;4860902;29;20047;-72
2021/05/22 05:44:47;;;;;;;1.33;0.32;;;10.60;83.10;;;;;;4848566;29;20465;-72
2021/05/22 05:47:14;;;;;;;1.98;0.40;;;10.60;83.60;;;;;;4837973;29;20049;-71
2021/05/22 05:49:41;;;;;;;1.48;0.20;;;10.60;83.80;;;;;;4859826;29;20046;-72
2021/05/22 05:52:09;;;;;;;2.58;0.40;;;10.60;84.00;;;;;;4821788;29;20041;-73
2021/05/22 05:54:36;;;;;;;1.77;0.30;;;10.60;84.40;;;;;;4815113;29;20061;-73
2021/05/22 05:57:04;;;;;;;2.80;0.20;;;10.60;84.60;;;;;;4857512;29;20060;-73
2021/05/22 05:59:31;;;;;;;5.72;0.77;;;10.60;84.70;;;;;;4879531;29;20562;-74
2021/05/22 06:01:58;;;;;;;0.98;0.32;;;10.60;84.90;;;;;;4836293;29;20502;-75
2021/05/22 06:04:25;;;;;;;3.53;1.05;;;10.60;85.20;;;;;;4830345;29;20057;-74
2021/05/22 06:06:53;;;;;;;3.20;0.32;;;10.50;85.40;;;;;;4846059;29;20136;-74
2021/05/22 06:09:20;;;;;;;1.98;0.50;;;10.50;85.70;;;;;;4862871;29;20471;-74
2021/05/22 06:11:47;;;;;;;2.20;0.40;;;10.40;85.90;;;;;;4861508;29;20048;-74
2021/05/22 06:14:26;;;;;;;1.00;0.22;;;10.40;86.20;;;;;;4847218;29;20144;-74
2021/05/22 06:16:54;;;;;;;3.75;0.60;;;10.40;86.40;;;;;;4864527;29;20413;-75
2021/05/22 06:19:21;;;;;;;0.95;0.20;;;10.40;86.60;;;;;;4880169;29;20041;-74
2021/05/22 06:21:48;;;;;;;3.35;0.47;;;10.50;86.80;;;;;;4848288;29;20550;-75
2021/05/22 06:24:15;;;;;;;2.72;0.38;;;10.50;87.00;;;;;;4849856;29;20068;-74
2021/05/22 06:26:43;;;;;;;2.58;0.50;;;10.50;87.10;;;;;;4870090;29;20042;-75
2021/05/22 06:29:10;;;;;;;3.75;0.68;;;10.50;87.20;;;;;;4875940;29;20410;-75
2021/05/22 06:31:37;;;;;;;2.45;0.90;;;10.50;87.40;;;;;;4847511;29;20482;-74
2021/05/22 06:34:04;;;;;;;1.73;0.40;;;10.50;87.60;;;;;;4838285;29;20042;-75
2021/05/22 06:36:31;;;;;;;1.42;0.45;;;10.50;87.60;;;;;;4875296;29;20044;-76
2021/05/22 06:38:58;;;;;;;2.28;0.43;;;10.50;87.80;;;;;;4844388;29;20447;-75
2021/05/22 06:41:25;;;;;;;2.30;0.57;;;10.50;88.00;;;;;;4877169;29;20047;-75
2021/05/22 06:43:52;;;;;;;1.45;0.50;;;10.50;88.10;;;;;;4860849;29;20049;-75
2021/05/22 06:48:46;;;;;;;1.83;0.40;;;10.50;88.40;;;;;;4847463;29;20057;-76
2021/05/22 06:51:14;;;;;;;1.75;0.40;;;10.60;88.50;;;;;;4830858;29;20502;-75
2021/05/22 06:53:51;;;;;;;3.13;0.57;;;10.60;88.60;;;;;;4832923;29;20049;-75
2021/05/22 06:56:18;;;;;;;0.95;0.32;;;10.60;88.70;;;;;;4856379;29;20065;-73
2021/05/22 06:58:45;;;;;;;1.38;0.40;;;10.60;88.90;;;;;;4850790;29;20042;-73
2021/05/22 07:01:12;;;;;;;2.63;0.50;;;10.60;89.10;;;;;;4859651;29;20786;-75
2021/05/22 07:03:40;;;;;;;2.63;0.40;;;10.60;89.10;;;;;;4846889;29;20065;-76
2021/05/22 07:06:11;;;;;;;3.35;0.30;;;10.60;89.20;;;;;;4823791;29;20053;-75
2021/05/22 07:08:39;;;;;;;1.15;0.30;;;10.60;89.30;;;;;;4846645;29;20046;-74
2021/05/22 07:11:08;;;;;;;2.15;0.45;;;10.60;89.50;;;;;;4844178;29;20144;-75
2021/05/22 07:13:35;;;;;;;2.72;0.50;;;10.70;89.60;;;;;;4860572;29;20071;-75
2021/05/22 07:16:04;;;;;;;2.05;0.50;;;10.70;89.70;;;;;;4860333;29;20690;-75
2021/05/22 07:18:38;;;;;;;1.23;0.50;;;10.70;89.70;;;;;;4849659;29;20037;-75
2021/05/22 07:21:05;;;;;;;1.08;0.30;;;10.70;89.80;;;;;;4845373;29;20045;-75
2021/05/22 07:23:34;;;;;;;1.25;0.40;;;10.70;89.90;;;;;;4856562;29;20505;-74
2021/05/22 07:26:02;;;;;;;1.42;0.40;;;10.70;90.00;;;;;;4860706;29;20057;-73
2021/05/22 07:28:33;;;;;;;2.30;0.40;;;10.70;90.00;;;;;;4843630;29;20064;-75
2021/05/22 07:31:01;;;;;;;1.88;0.40;;;10.60;90.00;;;;;;4839558;29;20096;-75
2021/05/22 07:33:29;;;;;;;2.30;0.50;;;10.60;90.00;;;;;;4850084;29;20772;-75
2021/05/22 07:35:57;;;;;;;2.03;0.32;;;10.70;90.20;;;;;;4859914;29;20065;-75
2021/05/22 07:38:24;;;;;;;1.13;0.28;;;10.70;90.20;;;;;;4834282;29;20057;-75
2021/05/22 07:40:54;;;;;;;0.52;0.28;;;10.70;90.20;;;;;;4837844;29;20057;-74
2021/05/22 07:43:21;;;;;;;1.40;0.40;;;10.70;90.20;;;;;;4848081;29;20107;-75
2021/05/22 07:45:48;;;;;;;3.80;0.70;;;10.80;90.30;;;;;;4852234;29;20098;-75
2021/05/22 07:48:15;;;;;;;1.13;0.73;;;10.80;90.30;;;;;;4859571;29;20566;-74
2021/05/22 07:50:42;;;;;;;4.18;0.40;;;10.80;90.30;;;;;;4824096;29;20054;-73
2021/05/22 07:53:09;;;;;;;1.80;0.40;;;10.90;90.30;;;;;;4860374;29;20037;-76
2021/05/22 07:55:36;;;;;;;1.52;0.52;;;10.90;90.30;;;;;;4858963;29;20464;-75
2021/05/22 07:58:03;;;;;;;1.83;0.50;;;11.00;90.30;;;;;;4859219;29;20046;-76
2021/05/22 08:00:30;;;;;;;0.90;0.40;;;11.00;90.40;;;;;;4830732;29;20106;-76
2021/05/22 08:02:57;;;;;;;2.25;0.40;;;11.00;90.40;;;;;;4839949;29;20049;-76
2021/05/22 08:05:24;;;;;;;0.98;0.40;;;11.00;90.40;;;;;;4859741;29;20397;-76
2021/05/22 08:07:51;;;;;;;1.48;0.30;;;11.10;90.40;;;;;;4837389;29;20118;-76
2021/05/22 08:10:18;;;;;;;1.52;0.30;;;11.10;90.40;;;;;;4844791;29;20062;-76
2021/05/22 08:12:45;;;;;;;2.75;0.47;;;11.10;90.40;;;;;;4847453;29;20474;-77
2021/05/22 08:15:12;;;;;;;1.75;0.63;;;11.10;90.50;;;;;;4864773;29;20431;-76
2021/05/22 08:17:40;;;;;;;1.88;0.40;;;11.10;90.50;;;;;;4848491;29;20038;-77
2021/05/22 08:20:07;;;;;;;2.05;0.40;;;11.10;90.50;;;;;;4831798;29;20050;-79
2021/05/22 08:22:34;;;;;;;1.98;0.30;;;11.10;90.60;;;;;;4844184;29;20057;-78
2021/05/22 08:25:02;;;;;;;1.83;0.43;;;11.20;90.60;;;;;;4848057;29;20045;-79
2021/05/22 08:27:29;;;;;;;2.03;0.45;;;11.20;90.50;;;;;;4816830;29;20049;-79
2021/05/22 08:29:56;;;;;;;2.53;0.30;;;11.20;90.60;;;;;;4856123;29;20053;-79
2021/05/22 08:32:25;;;;;;;0.93;0.40;;;11.20;90.60;;;;;;4860205;29;20133;-80
2021/05/22 08:34:53;;;;;;;1.25;0.60;;;11.20;90.60;;;;;;4836000;29;20042;-80
2021/05/22 08:37:21;;;;;;;1.85;0.40;;;11.20;90.60;;;;;;4863418;29;20101;-80
2021/05/22 08:39:49;;;;;;;2.10;0.38;;;11.20;90.60;;;;;;4843071;29;20098;-76
2021/05/22 08:42:22;;;;;;;0.57;0.30;;;11.20;90.70;;;;;;4842514;29;20049;-75
2021/05/22 08:44:50;;;;;;;1.85;0.40;;;11.20;90.80;;;;;;4851429;29;20041;-76
2021/05/22 08:47:18;;;;;;;0.55;0.40;;;11.10;90.80;;;;;;4832888;29;20049;-77
2021/05/22 08:49:45;;;;;;;1.02;0.50;;;11.10;90.90;;;;;;4828996;29;20071;-77
2021/05/22 08:52:17;;;;;;;1.48;0.55;;;11.10;91.00;;;;;;4836626;29;20045;-77
2021/05/22 08:54:45;;;;;;;1.08;0.40;;;11.10;91.00;;;;;;4857749;29;20046;-78
2021/05/22 08:57:14;;;;;;;1.65;0.47;;;11.10;91.10;;;;;;4837132;29;20046;-78
2021/05/22 08:59:44;;;;;;;0.65;0.32;;;11.10;91.10;;;;;;4845243;29;20516;-77
2021/05/22 09:02:18;;;;;;;2.05;0.40;;;11.10;91.10;;;;;;4846608;29;20053;-78
2021/05/22 09:05:06;;;;;;;0.70;0.30;;;11.20;91.10;;;;;;4864490;29;20064;-78
2021/05/22 09:07:35;;;;;;;1.33;0.38;;;11.30;91.20;;;;;;4846293;29;20047;-79
2021/05/22 09:10:22;;;;;;;3.95;0.65;;;11.20;91.10;;;;;;4830918;29;20117;-79
2021/05/22 09:12:58;;;;;;;2.03;0.50;;;11.20;91.20;;;;;;4845317;29;20053;-78
2021/05/22 09:15:30;;;;;;;1.85;0.47;;;11.20;91.20;;;;;;4858175;29;20057;-77
2021/05/22 09:18:03;;;;;;;1.08;0.40;;;11.30;91.20;;;;;;4846718;29;20050;-78
2021/05/22 09:20:37;;;;;;;1.65;0.50;;;11.30;91.30;;;;;;4830043;29;20065;-77
2021/05/22 09:23:22;;;;;;;0.98;0.50;;;11.30;91.30;;;;;;4846365;29;20069;-84
2021/05/22 09:25:58;;;;;;;1.45;0.40;;;11.30;91.30;;;;;;4837357;29;20418;-84
2021/05/22 09:28:31;;;;;;;0.90;0.50;;;11.30;91.30;;;;;;4831720;29;20042;-83
2021/05/22 09:31:00;;;;;;;1.90;0.47;;;11.40;91.30;;;;;;4837986;29;20418;-83
2021/05/22 09:33:35;;;;;;;0.90;0.45;;;11.40;91.30;;;;;;4845055;29;20041;-83
2021/05/22 09:36:07;;;;;;;0.52;0.40;;;11.40;91.30;;;;;;4817804;29;20549;-82
2021/05/22 09:38:36;;;;;;;1.20;0.80;;;11.50;91.40;;;;;;4852159;29;20050;-81
2021/05/22 09:41:14;;;;;;;1.55;0.60;;;11.50;91.30;;;;;;4860083;29;20049;-82
2021/05/22 09:43:42;;;;;;;2.25;0.80;;;11.60;91.30;;;;;;4843414;29;20494;-83
2021/05/22 09:46:10;;;;;;;1.50;0.77;;;11.60;91.30;;;;;;4857655;29;20056;-83
2021/05/22 09:48:37;;;;;;;3.22;0.57;;;11.70;91.20;;;;;;4848857;29;20045;-82
2021/05/22 09:51:07;;;;;;;1.00;0.50;;;11.70;91.30;;;;;;4830163;29;20516;-82
2021/05/22 09:53:37;;;;;;;1.83;0.93;;;11.70;91.20;;;;;;4826436;29;20053;-81
2021/05/22 09:56:11;;;;;;;1.27;0.88;;;11.70;91.30;;;;;;4829733;29;20061;-78
2021/05/22 09:58:58;;;;;;;2.33;0.82;;;11.60;91.30;;;;;;4856975;29;20037;-79
2021/05/22 10:01:30;;;;;;;2.40;0.98;;;11.60;91.30;;;;;;4852898;29;20053;-78
2021/05/22 10:04:19;;;;;;;6.00;0.93;;;11.60;91.40;;;;;;4827171;29;20057;-77
2021/05/22 10:06:47;;;;;;;1.20;0.65;;;11.60;91.50;;;;;;4842943;29;20045;-77
2021/05/22 10:09:20;;;;;;;2.10;1.00;;;11.60;91.50;;;;;;4808440;29;20093;-77
2021/05/22 10:12:09;;;;;;;1.65;1.10;;;11.60;91.50;;;;;;4836514;29;20070;-78
2021/05/22 10:14:43;;;;;;;2.60;0.98;;;11.60;91.50;;;;;;4832981;29;20049;-80
2021/05/22 10:17:12;;;;;;;2.65;0.80;;;11.60;91.50;;;;;;4834673;29;20498;-80
2021/05/22 10:19:40;;;;;;;2.25;0.85;;;11.60;91.60;;;;;;4832036;29;20128;-80
2021/05/22 10:22:08;;;;;;;1.88;0.75;;;11.60;91.60;;;;;;4834932;29;20417;-81
2021/05/22 10:24:37;;;;;;;1.83;1.00;;;11.60;91.60;;;;;;4812178;29;20054;-76
2021/05/22 10:27:04;;;;;;;2.35;1.10;;;11.70;91.60;;;;;;4821431;29;20073;-81
2021/05/22 10:29:34;;;;;;;1.60;1.10;;;11.70;91.60;;;;;;4817875;29;20048;-78
2021/05/22 10:32:02;;;;;;;1.70;1.00;;;11.70;91.50;;;;;;4839161;29;20065;-78
2021/05/22 10:34:36;;;;;;;1.83;0.77;;;11.70;91.60;;;;;;4817976;29;20045;-80
2021/05/22 10:37:03;;;;;;;1.55;0.90;;;11.80;91.60;;;;;;4827977;29;20057;-80
2021/05/22 10:39:41;;;;;;;2.67;1.30;;;11.80;91.50;;;;;;4824752;29;20448;-81
2021/05/22 10:42:30;;;;;;;1.77;1.00;;;11.90;91.50;;;;;;4823308;29;20431;-80
2021/05/22 10:45:19;;;;;;;2.10;1.20;;;11.90;91.50;;;;;;4837098;29;20438;-82
2021/05/22 10:47:46;;;;;;;1.65;1.15;;;11.90;91.50;;;;;;4852865;29;20046;-82
2021/05/22 10:50:31;;;;;;;1.83;0.93;;;12.10;91.50;;;;;;4812101;29;20088;-79
2021/05/22 10:53:17;;;;;;;2.20;1.42;;;12.10;91.40;;;;;;4813858;29;20506;-79
2021/05/22 10:55:44;;;;;;;3.00;1.60;;;12.20;91.30;;;;;;4837322;29;20054;-79
2021/05/22 10:58:12;;;;;;;3.03;1.38;;;12.10;91.30;;;;;;4844481;29;20045;-79
2021/05/22 11:00:39;;;;;;;1.83;1.15;;;12.10;91.30;;;;;;4827148;29;20459;-78
2021/05/22 11:03:06;;;;;;;3.05;1.35;;;12.00;91.40;;;;;;4814302;29;20050;-80
2021/05/22 11:05:36;;;;;;;1.65;1.15;;;12.00;91.40;;;;;;4842551;29;20046;-81
2021/05/22 11:08:09;;;;;;;2.35;1.33;;;12.00;91.40;;;;;;4834323;29;20569;-84
2021/05/22 11:10:44;;;;;;;1.95;1.35;;;12.00;91.50;;;;;;4845000;29;20041;-82
2021/05/22 11:13:23;;;;;;;1.10;0.80;;;12.10;91.60;;;;;;4837910;29;20053;-82
2021/05/22 11:15:52;;;;;;;2.28;1.25;;;12.20;91.50;;;;;;4836518;29;20057;-83
2021/05/22 11:18:40;;;;;;;1.92;1.25;;;12.30;91.50;;;;;;4823395;29;20048;-83
2021/05/22 11:21:16;;;;;;;1.48;0.90;;;12.30;91.40;;;;;;4847668;29;20156;-86
2021/05/22 11:23:59;;;;;;;5.47;1.40;;;12.40;91.50;;;;;;4820499;29;20045;-83
2021/05/22 11:26:45;;;;;;;2.63;1.58;;;12.40;91.40;;;;;;4832018;29;20054;-83
2021/05/22 11:29:12;;;;;;;1.70;1.00;;;12.40;91.40;;;;;;4818231;29;20405;-85
2021/05/22 11:31:39;;;;;;;2.28;1.25;;;12.40;91.50;;;;;;4808020;29;20101;-82
2021/05/22 11:34:22;;;;;;;2.10;1.27;;;12.30;91.80;;;;;;4833249;29;20041;-80
2021/05/22 11:37:10;;;;;;;2.42;1.50;;;12.20;91.50;;;;;;4849574;29;20155;-77
2021/05/22 11:39:42;;;;;;;3.55;1.30;;;12.20;91.70;;;;;;4835759;29;20052;-76
2021/05/22 11:42:27;;;;;;;2.10;1.25;;;12.10;92.10;;;;;;4824046;29;20037;-75
2021/05/22 11:44:56;;;;;;;2.38;1.60;;;12.00;91.80;;;;;;4834338;29;20076;-76
2021/05/22 11:47:32;;;;;;;1.45;1.00;;;11.90;91.90;;;;;;4844333;29;20042;-75
2021/05/22 11:50:01;;;;;;;2.50;1.40;;;11.90;92.00;;;;;;4835569;29;20061;-75
2021/05/22 11:52:31;;;;;;;1.67;1.05;;;11.90;92.10;;;;;;4860620;29;20041;-74
2021/05/22 11:55:00;;;;;;;1.90;1.10;;;11.90;92.10;;;;;;4861815;29;20114;-75
2021/05/22 11:57:27;;;;;;;3.28;0.93;;;11.90;92.40;;;;;;4827421;29;20041;-75
2021/05/22 11:59:54;;;;;;;3.75;1.13;;;12.00;92.10;;;;;;4829790;29;20056;-75
2021/05/22 12:02:37;;;;;;;2.38;1.50;;;12.10;92.10;;;;;;4855446;29;20755;-77
2021/05/22 12:05:08;;;;;;;3.70;1.23;;;12.10;92.00;;;;;;4827469;29;20046;-75
2021/05/22 12:07:49;;;;;;;5.43;2.40;;;12.20;92.00;;;;;;4838712;29;20449;-75
2021/05/22 12:10:18;;;;;;;4.35;2.17;;;12.30;92.00;;;;;;4829675;29;20049;-75
2021/05/22 12:12:45;;;;;;;5.03;2.42;;;12.20;91.80;;;;;;4855406;29;20494;-75
2021/05/22 12:15:23;;;;;;;6.05;2.00;;;12.10;91.90;;;;;;4826386;29;20139;-74
2021/05/22 12:17:51;;;;;;;5.15;2.00;;;12.10;92.00;;;;;;4844980;29;20044;-74
2021/05/22 12:20:29;;;;;;;2.63;1.30;;;12.00;92.10;;;;;;4864458;29;20037;-74
2021/05/22 12:22:56;;;;;;;3.50;1.95;;;12.00;92.20;;;;;;4840686;29;20046;-74
2021/05/22 12:25:23;;;;;;;3.45;1.70;;;12.10;92.20;;;;;;4859652;29;20088;-77
2021/05/22 12:27:50;;;;;;;4.70;1.50;;;12.20;92.10;;;;;;4846980;29;20052;-81
2021/05/22 12:30:23;;;;;;;4.20;2.10;;;12.30;92.00;;;;;;4813562;29;20054;-82
2021/05/22 12:33:09;;;;;;;6.53;2.33;;;12.40;91.90;;;;;;4841274;29;20431;-76
2021/05/22 12:35:36;;;;;;;4.20;2.65;;;12.40;91.80;;;;;;4861682;29;20498;-76
2021/05/22 12:38:05;;;;;;;3.03;2.28;;;12.40;91.80;;;;;;4855968;29;20077;-79
2021/05/22 12:40:50;;;;;;;2.97;1.85;;;12.40;92.10;;;;;;4810650;29;20045;-76
2021/05/22 12:43:18;;;;;;;4.18;2.38;;;12.40;91.90;;;;;;4830406;29;20060;-81
2021/05/22 12:45:46;;;;;;;3.30;2.47;;;12.40;91.80;;;;;;4844261;29;20042;-77
2021/05/22 12:48:26;;;;;;;4.10;2.55;;;12.50;91.80;;;;;;4822661;29;20144;-78
2021/05/22 12:50:54;;;;;;;5.05;3.08;;;12.40;91.60;;;;;;4831725;29;20149;-77
2021/05/22 12:53:31;;;;;;;6.97;3.25;;;12.40;91.50;;;;;;4854386;29;20474;-78
2021/05/22 12:56:07;;;;;;;6.00;3.47;;;12.30;91.50;;;;;;4836916;29;20068;-83
2021/05/22 12:58:34;;;;;;;5.20;2.72;;;12.30;91.60;;;;;;4853632;29;20042;-82
2021/05/22 13:01:17;;;;;;;6.22;3.03;;;12.30;91.50;;;;;;4831145;29;20463;-81
2021/05/22 13:03:49;;;;;;;5.10;3.20;;;12.30;91.60;;;;;;4838610;29;20101;-78